createdAt,value
2018-10-11T00:00:21.508Z,12.17
2018-10-11T00:02:57.098Z,11.03
2018-10-11T00:05:32.673Z,13.07
2018-10-11T00:08:08.714Z,11.03
2018-10-11T00:10:44.295Z,12.10
2018-10-11T00:13:20.019Z,11.13
2018-10-11T00:15:55.688Z,12.17
2018-10-11T00:18:31.320Z,11.33
2018-10-11T00:21:06.874Z,11.93
2018-10-11T00:23:42.401Z,12.23
2018-10-11T00:26:18.038Z,12.33
2018-10-11T00:28:53.536Z,12.57
2018-10-11T00:31:29.166Z,13.10
2018-10-11T00:34:04.697Z,12.27
2018-10-11T00:36:40.361Z,12.50
2018-10-11T00:39:15.859Z,12.80
2018-10-11T00:41:51.398Z,12.80
2018-10-11T00:44:26.853Z,12.70
2018-10-11T00:47:02.466Z,12.30
2018-10-11T00:49:38.077Z,12.30
2018-10-11T00:52:13.514Z,12.53
2018-10-11T00:54:49.041Z,13.80
2018-10-11T00:57:24.598Z,13.10
2018-10-11T01:00:00.098Z,12.83
2018-10-11T01:02:35.711Z,13.07
2018-10-11T01:05:11.239Z,12.20
2018-10-11T01:07:46.891Z,12.60
2018-10-11T01:10:22.387Z,12.93
2018-10-11T01:12:57.981Z,12.70
2018-10-11T01:15:33.590Z,12.80
2018-10-11T01:18:09.193Z,14.17
2018-10-11T01:20:44.707Z,13.53
2018-10-11T01:23:20.352Z,14.07
2018-10-11T01:25:56.099Z,13.57
2018-10-11T01:28:31.699Z,13.20
2018-10-11T01:31:13.023Z,13.40
2018-10-11T01:33:48.686Z,14.03
2018-10-11T01:36:24.251Z,13.90
2018-10-11T01:38:59.826Z,12.97
2018-10-11T01:41:35.623Z,13.17
2018-10-11T01:44:11.279Z,13.37
2018-10-11T01:46:46.915Z,12.33
2018-10-11T01:49:22.635Z,12.83
2018-10-11T01:51:58.355Z,13.10
2018-10-11T01:54:33.909Z,13.60
2018-10-11T01:57:10.126Z,13.40
2018-10-11T01:59:45.578Z,13.47
2018-10-11T02:02:21.131Z,13.60
2018-10-11T02:04:56.666Z,14.03
2018-10-11T02:07:32.204Z,13.10
2018-10-11T02:10:07.706Z,14.13
2018-10-11T02:12:43.227Z,13.70
2018-10-11T02:15:18.772Z,13.50
2018-10-11T02:17:54.364Z,14.03
2018-10-11T02:20:29.915Z,12.80
2018-10-11T02:23:05.474Z,13.93
2018-10-11T02:25:41.126Z,13.97
2018-10-11T02:28:23.367Z,14.10
2018-10-11T02:30:58.968Z,13.80
2018-10-11T02:33:34.541Z,14.57
2018-10-11T02:36:10.054Z,14.60
2018-10-11T02:38:45.610Z,13.50
2018-10-11T02:41:21.094Z,13.23
2018-10-11T02:43:56.835Z,14.30
2018-10-11T02:46:32.392Z,14.37
2018-10-11T02:49:07.858Z,14.73
2018-10-11T02:51:43.571Z,12.67
2018-10-11T02:54:19.123Z,14.47
2018-10-11T02:58:28.794Z,14.30
2018-10-11T03:01:04.270Z,14.30
2018-10-11T03:03:39.885Z,14.07
2018-10-11T03:06:15.483Z,14.27
2018-10-11T03:08:51.159Z,14.17
2018-10-11T03:11:26.775Z,13.90
2018-10-11T03:14:02.258Z,14.07
2018-10-11T03:16:37.871Z,14.60
2018-10-11T03:19:13.431Z,15.20
2018-10-11T03:21:48.906Z,15.60
2018-10-11T03:24:24.675Z,15.03
2018-10-11T03:27:01.084Z,14.27
2018-10-11T03:29:36.758Z,14.40
2018-10-11T03:32:12.335Z,14.00
2018-10-11T03:34:47.931Z,13.73
2018-10-11T03:37:23.442Z,15.77
2018-10-11T03:39:59.131Z,14.83
2018-10-11T03:42:34.751Z,14.77
2018-10-11T03:45:10.694Z,13.93
2018-10-11T03:47:46.201Z,13.77
2018-10-11T03:50:21.789Z,14.37
2018-10-11T03:52:58.438Z,13.70
2018-10-11T03:55:34.019Z,14.20
2018-10-11T03:58:09.834Z,13.50
2018-10-11T04:00:45.530Z,13.30
2018-10-11T04:03:21.340Z,13.57
2018-10-11T04:05:57.044Z,13.23
2018-10-11T04:08:32.655Z,14.57
2018-10-11T04:11:08.289Z,14.33
2018-10-11T04:13:44.253Z,13.17
2018-10-11T04:16:19.926Z,14.40
2018-10-11T04:18:55.658Z,15.40
2018-10-11T04:21:31.303Z,14.90
2018-10-11T04:24:06.886Z,14.90
2018-10-11T04:26:42.902Z,14.60
2018-10-11T04:29:18.559Z,14.73
2018-10-11T04:31:54.367Z,15.60
2018-10-11T04:34:30.059Z,15.20
2018-10-11T04:37:05.635Z,14.63
2018-10-11T04:39:41.492Z,15.33
2018-10-11T04:42:17.059Z,15.10
2018-10-11T04:44:52.571Z,14.43
2018-10-11T04:47:28.135Z,15.27
2018-10-11T04:50:03.695Z,15.67
2018-10-11T04:52:39.395Z,15.30
2018-10-11T04:55:14.927Z,15.50
2018-10-11T04:57:50.529Z,15.43
2018-10-11T05:00:26.902Z,14.37
2018-10-11T05:03:10.267Z,14.67
2018-10-11T05:05:46.161Z,14.70
2018-10-11T05:08:21.681Z,14.70
2018-10-11T05:10:57.466Z,14.83
2018-10-11T05:13:46.247Z,14.87
2018-10-11T05:16:21.686Z,14.80
2018-10-11T05:19:04.439Z,14.97
2018-10-11T05:21:40.243Z,14.10
2018-10-11T05:24:15.766Z,14.03
2018-10-11T05:26:51.394Z,13.97
2018-10-11T05:29:27.290Z,14.63
2018-10-11T05:32:02.832Z,14.17
2018-10-11T05:34:38.415Z,14.37
2018-10-11T05:37:14.088Z,14.90
2018-10-11T05:39:49.477Z,15.33
2018-10-11T05:42:25.398Z,14.83
2018-10-11T05:45:11.158Z,15.10
2018-10-11T05:47:53.724Z,15.30
2018-10-11T05:50:29.226Z,15.83
2018-10-11T05:53:04.629Z,16.40
2018-10-11T05:55:40.198Z,16.60
2018-10-11T05:58:15.789Z,15.37
2018-10-11T06:00:51.389Z,14.80
2018-10-11T06:03:26.990Z,14.27
2018-10-11T06:06:02.500Z,15.13
2018-10-11T06:08:38.162Z,15.17
2018-10-11T06:11:13.965Z,14.83
2018-10-11T06:13:50.576Z,14.70
2018-10-11T06:16:26.123Z,13.87
2018-10-11T06:19:01.837Z,14.60
2018-10-11T06:21:38.285Z,14.47
2018-10-11T06:24:13.861Z,15.37
2018-10-11T06:26:49.787Z,14.83
2018-10-11T06:29:25.280Z,15.27
2018-10-11T06:32:00.889Z,15.70
2018-10-11T06:34:36.496Z,14.63
2018-10-11T06:37:12.284Z,13.33
2018-10-11T06:39:47.731Z,13.70
2018-10-11T06:42:23.486Z,15.17
2018-10-11T06:44:58.937Z,16.17
2018-10-11T06:47:34.545Z,16.03
2018-10-11T06:50:10.481Z,16.40
2018-10-11T06:52:46.210Z,15.33
2018-10-11T06:55:21.798Z,14.67
2018-10-11T06:57:57.454Z,14.80
2018-10-11T07:00:33.002Z,14.50
2018-10-11T07:03:08.727Z,13.33
2018-10-11T07:05:44.425Z,14.80
2018-10-11T07:08:20.049Z,14.37
2018-10-11T07:10:55.669Z,15.60
2018-10-11T07:13:31.353Z,15.33
2018-10-11T07:16:06.990Z,14.80
2018-10-11T07:18:42.566Z,15.47
2018-10-11T07:21:18.136Z,16.03
2018-10-11T07:23:53.873Z,14.77
2018-10-11T07:26:29.289Z,15.00
2018-10-11T07:29:04.936Z,15.77
2018-10-11T07:31:40.471Z,16.03
2018-10-11T07:34:15.971Z,15.10
2018-10-11T07:36:51.481Z,17.27
2018-10-11T07:39:27.046Z,17.73
2018-10-11T07:42:02.528Z,23.70
2018-10-11T07:44:38.172Z,25.00
2018-10-11T07:47:13.893Z,23.37
2018-10-11T07:49:49.606Z,21.27
2018-10-11T07:52:25.118Z,20.53
2018-10-11T07:55:00.776Z,27.00
2018-10-11T07:57:36.348Z,24.77
2018-10-11T08:00:13.211Z,25.67
2018-10-11T08:02:48.730Z,25.30
2018-10-11T08:05:24.281Z,24.87
2018-10-11T08:07:59.816Z,22.63
2018-10-11T08:10:35.500Z,23.53
2018-10-11T08:13:10.872Z,22.27
2018-10-11T08:15:46.498Z,26.20
2018-10-11T08:18:22.000Z,25.93
2018-10-11T08:20:57.582Z,27.10
2018-10-11T08:23:33.658Z,25.40
2018-10-11T08:26:10.353Z,25.87
2018-10-11T08:28:45.419Z,26.67
2018-10-11T08:31:21.125Z,25.33
2018-10-11T08:33:56.761Z,25.80
2018-10-11T08:36:32.354Z,24.97
2018-10-11T08:39:10.902Z,25.53
2018-10-11T08:41:46.530Z,24.07
2018-10-11T08:44:22.091Z,23.80
2018-10-11T08:46:57.563Z,22.87
2018-10-11T08:49:33.147Z,23.70
2018-10-11T08:52:08.786Z,21.80
2018-10-11T08:54:44.401Z,21.73
2018-10-11T08:57:20.638Z,21.93
2018-10-11T08:59:56.094Z,21.00
2018-10-11T09:02:31.686Z,19.50
2018-10-11T09:05:07.589Z,19.70
2018-10-11T09:07:43.022Z,17.83
2018-10-11T09:10:18.659Z,17.67
2018-10-11T09:12:54.452Z,17.97
2018-10-11T09:15:31.102Z,17.47
2018-10-11T09:18:06.602Z,17.13
2018-10-11T09:20:42.329Z,19.07
2018-10-11T09:23:17.953Z,17.93
2018-10-11T09:25:53.566Z,18.03
2018-10-11T09:28:29.098Z,17.53
2018-10-11T09:31:04.868Z,18.10
2018-10-11T09:33:40.422Z,17.97
2018-10-11T09:36:15.998Z,18.07
2018-10-11T09:38:52.335Z,17.67
2018-10-11T09:41:28.046Z,17.80
2018-10-11T09:44:03.750Z,17.60
2018-10-11T09:46:39.234Z,17.30
2018-10-11T09:49:14.794Z,17.03
2018-10-11T09:51:50.381Z,17.53
2018-10-11T09:54:26.004Z,16.07
2018-10-11T09:57:21.515Z,15.13
2018-10-11T09:59:57.254Z,16.63
2018-10-11T10:02:33.030Z,16.10
2018-10-11T10:05:09.114Z,16.33
2018-10-11T10:07:45.402Z,16.07
2018-10-11T10:10:21.105Z,15.13
2018-10-11T10:12:56.674Z,15.70
2018-10-11T10:15:32.303Z,14.30
2018-10-11T10:18:07.870Z,15.60
2018-10-11T10:20:43.511Z,15.37
2018-10-11T10:23:19.186Z,14.90
2018-10-11T10:25:54.886Z,15.03
2018-10-11T10:28:30.612Z,15.93
2018-10-11T10:31:06.272Z,16.03
2018-10-11T10:33:41.979Z,14.13
2018-10-11T10:36:17.631Z,14.73
2018-10-11T10:38:53.254Z,16.40
2018-10-11T10:41:28.911Z,15.03
2018-10-11T10:44:04.867Z,14.57
2018-10-11T10:46:40.348Z,13.20
2018-10-11T10:49:15.940Z,14.03
2018-10-11T10:51:51.521Z,13.17
2018-10-11T10:54:29.201Z,12.70
2018-10-11T10:57:05.379Z,12.83
2018-10-11T10:59:40.899Z,13.87
2018-10-11T11:02:16.466Z,12.23
2018-10-11T11:04:52.019Z,12.07
2018-10-11T11:07:27.672Z,13.20
2018-10-11T11:10:03.206Z,12.83
2018-10-11T11:12:39.015Z,13.97
2018-10-11T11:15:14.770Z,13.03
2018-10-11T11:17:50.473Z,13.40
2018-10-11T11:20:26.145Z,15.03
2018-10-11T11:23:01.858Z,15.13
2018-10-11T11:25:37.495Z,13.57
2018-10-11T11:28:13.082Z,14.57
2018-10-11T11:30:48.903Z,14.87
2018-10-11T11:33:24.511Z,15.37
2018-10-11T11:36:00.146Z,15.57
2018-10-11T11:38:35.635Z,13.33
2018-10-11T11:41:11.225Z,14.13
2018-10-11T11:43:46.907Z,14.43
2018-10-11T11:46:22.492Z,15.30
2018-10-11T11:48:58.098Z,14.93
2018-10-11T11:51:33.682Z,13.40
2018-10-11T11:54:14.464Z,13.93
2018-10-11T11:56:50.927Z,13.47
2018-10-11T11:59:26.383Z,14.83
2018-10-11T12:02:01.917Z,12.70
2018-10-11T12:04:37.502Z,12.87
2018-10-11T12:07:13.097Z,11.80
2018-10-11T12:09:48.697Z,12.80
2018-10-11T12:13:10.096Z,12.47
2018-10-11T12:15:45.729Z,12.20
2018-10-11T12:18:21.198Z,12.40
2018-10-11T12:20:56.746Z,12.77
2018-10-11T12:23:32.390Z,11.90
2018-10-11T12:26:08.010Z,11.87
2018-10-11T12:28:43.688Z,11.20
2018-10-11T12:31:19.114Z,11.37
2018-10-11T12:33:54.768Z,12.70
2018-10-11T12:36:30.461Z,12.83
2018-10-11T12:39:08.238Z,11.90
2018-10-11T12:41:43.746Z,11.03
2018-10-11T12:44:19.354Z,13.53
2018-10-11T12:46:55.143Z,11.77
2018-10-11T12:49:30.817Z,13.97
2018-10-11T12:52:06.487Z,12.50
2018-10-11T12:54:42.161Z,11.67
2018-10-11T12:57:20.368Z,12.47
2018-10-11T12:59:53.663Z,11.70
2018-10-11T13:02:29.560Z,11.57
2018-10-11T13:05:05.394Z,10.50
2018-10-11T13:07:41.399Z,11.50
2018-10-11T13:10:16.979Z,11.30
2018-10-11T13:12:52.602Z,13.43
2018-10-11T13:15:28.221Z,14.97
2018-10-11T13:18:03.788Z,14.10
2018-10-11T13:20:39.406Z,15.17
2018-10-11T13:23:17.925Z,13.63
2018-10-11T13:25:50.535Z,14.63
2018-10-11T13:28:26.074Z,14.40
2018-10-11T13:31:01.710Z,14.23
2018-10-11T13:33:37.262Z,14.30
2018-10-11T13:36:12.854Z,13.10
2018-10-11T13:38:48.394Z,13.23
2018-10-11T13:41:24.181Z,15.07
2018-10-11T13:43:59.578Z,16.57
2018-10-11T13:46:34.937Z,14.90
2018-10-11T13:49:10.537Z,13.73
2018-10-11T13:51:46.050Z,14.10
2018-10-11T13:54:21.617Z,12.70
2018-10-11T13:57:00.259Z,14.13
2018-10-11T13:59:32.750Z,15.30
2018-10-11T14:02:08.250Z,13.50
2018-10-11T14:04:44.242Z,12.23
2018-10-11T14:07:19.700Z,12.20
2018-10-11T14:09:55.221Z,13.37
2018-10-11T14:12:30.738Z,13.63
2018-10-11T14:15:07.507Z,13.47
2018-10-11T14:17:42.949Z,13.77
2018-10-11T14:20:18.414Z,13.67
2018-10-11T14:22:53.997Z,14.37
2018-10-11T14:25:29.608Z,14.07
2018-10-11T14:28:05.295Z,13.10
2018-10-11T14:30:40.877Z,13.53
2018-10-11T14:33:16.500Z,15.47
2018-10-11T14:35:52.106Z,14.80
2018-10-11T14:38:27.619Z,15.97
2018-10-11T14:41:03.226Z,14.97
2018-10-11T14:43:38.723Z,14.83
2018-10-11T14:46:14.566Z,13.03
2018-10-11T14:48:50.091Z,12.77
2018-10-11T14:51:25.798Z,11.90
2018-10-11T14:54:01.311Z,12.00
2018-10-11T14:56:36.890Z,13.80
2018-10-11T14:59:12.487Z,13.80
2018-10-11T15:01:48.138Z,12.87
2018-10-11T15:04:23.897Z,12.60
2018-10-11T15:06:59.534Z,11.40
2018-10-11T15:09:35.122Z,12.70
2018-10-11T15:12:10.602Z,13.33
2018-10-11T15:14:46.198Z,12.47
2018-10-11T15:17:21.697Z,11.87
2018-10-11T15:19:57.257Z,11.80
2018-10-11T15:22:32.873Z,12.80
2018-10-11T15:25:08.678Z,13.80
2018-10-11T15:27:44.217Z,12.67
2018-10-11T15:30:19.744Z,11.93
2018-10-11T15:32:55.339Z,13.40
2018-10-11T15:35:30.907Z,12.60
2018-10-11T15:38:06.467Z,12.30
2018-10-11T15:40:41.971Z,12.77
2018-10-11T15:43:17.554Z,12.90
2018-10-11T15:45:53.206Z,13.17
2018-10-11T15:48:29.610Z,13.27
2018-10-11T15:51:05.182Z,12.33
2018-10-11T15:53:40.706Z,12.77
2018-10-11T15:56:16.733Z,12.07
2018-10-11T15:58:53.282Z,12.53
2018-10-11T16:01:28.757Z,13.33
2018-10-11T16:04:04.323Z,13.37
2018-10-11T16:06:40.209Z,13.80
2018-10-11T16:09:16.701Z,13.73
2018-10-11T16:11:52.055Z,12.90
2018-10-11T16:14:27.586Z,13.73
2018-10-11T16:17:03.062Z,13.53
2018-10-11T16:19:38.618Z,13.77
2018-10-11T16:22:14.218Z,12.47
2018-10-11T16:24:50.073Z,13.07
2018-10-11T16:27:25.749Z,12.63
2018-10-11T16:30:01.964Z,12.97
2018-10-11T16:32:38.233Z,13.17
2018-10-11T16:35:14.501Z,12.57
2018-10-11T16:37:50.878Z,12.23
2018-10-11T16:40:26.563Z,12.13
2018-10-11T16:43:02.227Z,12.23
2018-10-11T16:45:37.751Z,12.57
2018-10-11T16:48:13.318Z,12.53
2018-10-11T16:50:48.862Z,13.33
2018-10-11T16:53:24.337Z,13.40
2018-10-11T16:55:59.878Z,13.10
2018-10-11T16:58:35.435Z,13.00
2018-10-11T17:01:10.919Z,13.60
2018-10-11T17:03:46.427Z,15.70
2018-10-11T17:06:22.102Z,14.97
2018-10-11T17:08:57.687Z,16.17
2018-10-11T17:11:33.150Z,15.13
2018-10-11T17:14:09.691Z,15.13
2018-10-11T17:16:45.155Z,14.93
2018-10-11T17:19:20.646Z,14.70
2018-10-11T17:21:56.148Z,14.40
2018-10-11T17:24:31.714Z,15.57
2018-10-11T17:27:07.343Z,13.67
2018-10-11T17:29:42.821Z,13.53
2018-10-11T17:32:18.237Z,15.20
2018-10-11T17:34:53.904Z,14.03
2018-10-11T17:37:29.667Z,14.80
2018-10-11T17:40:05.218Z,14.93
2018-10-11T17:42:40.738Z,14.93
2018-10-11T17:45:16.264Z,14.80
2018-10-11T17:47:51.954Z,14.23
2018-10-11T17:50:27.390Z,14.63
2018-10-11T17:53:02.909Z,13.93
2018-10-11T17:55:38.735Z,13.70
2018-10-11T17:58:14.314Z,14.60
2018-10-11T18:00:50.097Z,13.37
2018-10-11T18:03:25.717Z,13.70
2018-10-11T18:06:01.133Z,13.10
2018-10-11T18:08:36.621Z,15.13
2018-10-11T18:11:12.127Z,15.40
2018-10-11T18:13:47.843Z,14.37
2018-10-11T18:16:23.370Z,13.40
2018-10-11T18:18:58.945Z,16.47
2018-10-11T18:21:34.515Z,15.63
2018-10-11T18:24:10.122Z,16.67
2018-10-11T18:26:45.663Z,16.73
2018-10-11T18:29:21.307Z,17.40
2018-10-11T18:31:56.936Z,17.53
2018-10-11T18:34:32.601Z,16.80
2018-10-11T18:37:08.510Z,15.80
2018-10-11T18:39:44.181Z,15.53
2018-10-11T18:42:19.772Z,14.77
2018-10-11T18:44:55.313Z,13.77
2018-10-11T18:47:30.947Z,14.20
2018-10-11T18:50:06.534Z,13.83
2018-10-11T18:52:42.122Z,15.23
2018-10-11T18:55:17.787Z,16.13
2018-10-11T18:57:53.473Z,15.10
2018-10-11T19:00:28.987Z,15.47
2018-10-11T19:03:04.619Z,15.60
2018-10-11T19:05:40.234Z,15.93
2018-10-11T19:08:15.798Z,15.13
2018-10-11T19:10:51.375Z,16.07
2018-10-11T19:13:27.014Z,17.00
2018-10-11T19:16:02.767Z,15.83
2018-10-11T19:18:38.314Z,14.77
2018-10-11T19:21:14.270Z,14.30
2018-10-11T19:23:49.847Z,15.67
2018-10-11T19:26:25.487Z,16.47
2018-10-11T19:29:01.106Z,16.37
2018-10-11T19:31:36.679Z,16.50
2018-10-11T19:34:12.186Z,16.27
2018-10-11T19:36:47.735Z,16.07
2018-10-11T19:39:23.459Z,15.73
2018-10-11T19:41:59.154Z,15.37
2018-10-11T19:44:34.783Z,15.67
2018-10-11T19:47:10.578Z,15.77
2018-10-11T19:49:46.094Z,16.27
2018-10-11T19:52:21.719Z,16.17
2018-10-11T19:54:57.262Z,15.57
2018-10-11T19:57:32.925Z,14.20
2018-10-11T20:00:08.612Z,16.90
2018-10-11T20:02:44.181Z,15.77
2018-10-11T20:05:19.778Z,13.83
2018-10-11T20:07:55.421Z,15.63
2018-10-11T20:10:31.010Z,15.87
2018-10-11T20:13:06.602Z,16.37
2018-10-11T20:15:42.398Z,14.73
2018-10-11T20:18:18.079Z,15.53
2018-10-11T20:20:53.543Z,14.23
2018-10-11T20:23:29.196Z,14.77
2018-10-11T20:26:04.854Z,14.63
2018-10-11T20:28:40.370Z,15.13
2018-10-11T20:31:15.913Z,15.17
2018-10-11T20:33:51.489Z,15.67
2018-10-11T20:36:26.874Z,18.67
2018-10-11T20:39:02.380Z,19.33
2018-10-11T20:41:38.287Z,18.60
2018-10-11T20:44:13.642Z,17.93
2018-10-11T20:46:49.146Z,16.23
2018-10-11T20:49:24.658Z,15.93
2018-10-11T20:52:00.322Z,15.73
2018-10-11T20:54:35.835Z,16.63
2018-10-11T20:57:11.505Z,15.10
2018-10-11T20:59:47.139Z,15.30
2018-10-11T21:02:22.745Z,15.13
2018-10-11T21:04:58.247Z,14.87
2018-10-11T21:07:34.191Z,15.57
2018-10-11T21:10:09.990Z,14.90
2018-10-11T21:12:45.603Z,14.07
2018-10-11T21:15:21.170Z,15.23
2018-10-11T21:17:56.527Z,14.67
2018-10-11T21:20:32.223Z,14.80
2018-10-11T21:23:07.617Z,14.30
2018-10-11T21:25:43.148Z,16.00
2018-10-11T21:28:18.770Z,15.17
2018-10-11T21:30:54.247Z,14.87
2018-10-11T21:33:29.813Z,15.03
2018-10-11T21:36:05.432Z,13.57
2018-10-11T21:38:40.990Z,14.43
2018-10-11T21:41:16.485Z,14.50
2018-10-11T21:43:52.054Z,14.73
2018-10-11T21:46:27.690Z,13.67
2018-10-11T21:49:03.191Z,14.03
2018-10-11T21:51:38.603Z,13.90
2018-10-11T21:54:14.194Z,15.17
2018-10-11T21:56:49.699Z,15.30
2018-10-11T21:59:25.333Z,14.40
2018-10-11T22:02:00.863Z,13.10
2018-10-11T22:04:36.402Z,14.53
2018-10-11T22:07:11.890Z,13.53
2018-10-11T22:09:47.477Z,15.40
2018-10-11T22:12:22.979Z,14.43
2018-10-11T22:14:58.733Z,14.07
2018-10-11T22:17:34.083Z,15.20
2018-10-11T22:20:09.601Z,16.07
2018-10-11T22:22:45.138Z,15.07
2018-10-11T22:25:20.662Z,14.30
2018-10-11T22:27:56.270Z,13.50
2018-10-11T22:30:31.830Z,15.30
2018-10-11T22:33:07.490Z,15.50
2018-10-11T22:35:43.012Z,15.20
2018-10-11T22:38:18.666Z,12.93
2018-10-11T22:40:54.227Z,14.23
2018-10-11T22:43:29.759Z,15.73
2018-10-11T22:46:05.270Z,13.67
2018-10-11T22:48:41.047Z,14.00
2018-10-11T22:51:16.577Z,14.10
2018-10-11T22:53:52.121Z,14.23
2018-10-11T22:56:27.777Z,14.50
2018-10-11T22:59:03.434Z,15.37
2018-10-11T23:01:38.998Z,13.93
2018-10-11T23:04:14.590Z,13.40
2018-10-11T23:06:50.095Z,14.83
2018-10-11T23:09:25.784Z,15.43
2018-10-11T23:12:01.385Z,14.63
2018-10-11T23:14:37.022Z,15.60
2018-10-11T23:17:12.571Z,14.63
2018-10-11T23:19:48.222Z,15.13
2018-10-11T23:22:24.049Z,14.23
2018-10-11T23:24:59.623Z,13.60
2018-10-11T23:27:35.202Z,14.80
2018-10-11T23:30:11.937Z,14.23
2018-10-11T23:32:47.657Z,13.87
2018-10-11T23:35:23.225Z,14.17
2018-10-11T23:37:58.723Z,13.67
2018-10-11T23:40:34.228Z,14.73
2018-10-11T23:43:09.708Z,14.37
2018-10-11T23:45:45.382Z,14.90
2018-10-11T23:48:21.020Z,15.20
2018-10-11T23:50:56.538Z,15.27
2018-10-11T23:53:32.114Z,14.63
2018-10-11T23:56:07.870Z,15.30
2018-10-11T23:58:43.330Z,13.50
